createdAt,value
2022-08-07T00:00:59.492Z,24.15
2022-08-07T00:03:25.699Z,24.16
2022-08-07T00:05:51.771Z,24.56
2022-08-07T00:08:19.940Z,24.67
2022-08-07T00:10:48.192Z,24.36
2022-08-07T00:13:23.803Z,24.41
2022-08-07T00:15:51.930Z,24.79
2022-08-07T00:18:18.764Z,24.96
2022-08-07T00:20:46.315Z,24.89
2022-08-07T00:23:13.720Z,24.94
2022-08-07T00:25:41.562Z,25.32
2022-08-07T00:28:07.673Z,25.50
2022-08-07T00:30:33.626Z,25.46
2022-08-07T00:33:00.295Z,25.63
2022-08-07T00:35:26.403Z,25.76
2022-08-07T00:37:52.354Z,25.77
2022-08-07T00:40:36.300Z,25.73
2022-08-07T00:43:04.306Z,25.74
2022-08-07T00:45:36.025Z,25.65
2022-08-07T00:48:09.949Z,25.25
2022-08-07T00:50:43.795Z,25.25
2022-08-07T00:53:17.399Z,25.42
2022-08-07T00:56:03.021Z,25.60
2022-08-07T00:58:29.402Z,25.68
2022-08-07T01:00:55.401Z,25.95
2022-08-07T01:03:54.689Z,25.84
2022-08-07T01:06:07.667Z,25.90
2022-08-07T01:08:34.170Z,26.16
2022-08-07T01:11:10.723Z,26.27
2022-08-07T01:13:55.578Z,25.93
2022-08-07T01:16:30.085Z,25.96
2022-08-07T01:18:56.732Z,26.00
2022-08-07T01:21:25.816Z,26.22
2022-08-07T01:23:52.108Z,26.25
2022-08-07T01:26:20.198Z,26.36
2022-08-07T01:28:48.393Z,26.35
2022-08-07T01:31:15.470Z,26.29
2022-08-07T01:33:55.282Z,26.30
2022-08-07T01:36:33.593Z,26.07
2022-08-07T01:39:00.139Z,25.89
2022-08-07T01:41:27.034Z,25.83
2022-08-07T01:43:53.031Z,25.76
2022-08-07T01:46:19.046Z,25.62
2022-08-07T01:48:47.643Z,25.65
2022-08-07T01:52:01.088Z,25.45
2022-08-07T01:54:11.925Z,25.37
2022-08-07T01:56:38.812Z,25.25
2022-08-07T01:59:04.822Z,25.20
2022-08-07T02:02:02.405Z,25.04
2022-08-07T02:04:16.802Z,25.13
2022-08-07T02:06:43.527Z,25.11
2022-08-07T02:09:11.854Z,25.09
2022-08-07T02:12:05.086Z,25.01
2022-08-07T02:14:40.172Z,25.13
2022-08-07T02:17:07.210Z,25.24
2022-08-07T02:20:06.701Z,25.24
2022-08-07T02:22:19.148Z,25.26
2022-08-07T02:24:45.089Z,25.26
2022-08-07T02:27:12.842Z,25.36
2022-08-07T02:29:43.411Z,25.50
2022-08-07T02:32:14.860Z,25.48
2022-08-07T02:34:48.927Z,25.37
2022-08-07T02:37:17.349Z,25.33
2022-08-07T02:40:02.184Z,25.50
2022-08-07T02:42:29.285Z,25.29
2022-08-07T02:44:55.481Z,24.93
2022-08-07T02:47:24.441Z,25.03
2022-08-07T02:49:57.965Z,25.02
2022-08-07T02:52:32.153Z,25.04
2022-08-07T02:54:58.414Z,24.86
2022-08-07T02:57:24.350Z,24.88
2022-08-07T03:00:01.206Z,24.85
2022-08-07T03:02:30.775Z,24.53
2022-08-07T03:04:58.425Z,24.55
2022-08-07T03:08:04.965Z,24.54
2022-08-07T03:10:10.371Z,24.57
2022-08-07T03:12:40.305Z,24.63
2022-08-07T03:15:07.738Z,24.66
2022-08-07T03:17:36.344Z,24.54
2022-08-07T03:20:20.059Z,24.63
2022-08-07T03:22:50.354Z,24.40
2022-08-07T03:25:16.437Z,24.55
2022-08-07T03:28:09.092Z,24.24
2022-08-07T03:30:33.126Z,23.86
2022-08-07T03:33:00.991Z,24.04
2022-08-07T03:35:27.055Z,23.82
2022-08-07T03:38:04.777Z,23.90
2022-08-07T03:40:36.495Z,24.01
2022-08-07T03:43:02.875Z,24.18
2022-08-07T03:45:31.099Z,23.90
2022-08-07T03:47:57.401Z,24.10
2022-08-07T03:50:24.039Z,24.21
2022-08-07T03:52:50.059Z,24.10
2022-08-07T03:55:15.995Z,24.20
2022-08-07T03:58:32.978Z,24.37
2022-08-07T04:00:29.194Z,24.42
2022-08-07T04:02:56.958Z,24.39
2022-08-07T04:05:23.991Z,24.42
2022-08-07T04:07:54.863Z,24.39
2022-08-07T04:10:20.801Z,24.44
2022-08-07T04:12:50.395Z,24.30
2022-08-07T04:15:16.555Z,24.34
2022-08-07T04:18:32.064Z,24.41
2022-08-07T04:20:28.510Z,24.40
2022-08-07T04:23:01.591Z,24.39
2022-08-07T04:25:29.214Z,24.35
2022-08-07T04:28:00.612Z,24.28
2022-08-07T04:30:39.347Z,24.40
2022-08-07T04:33:10.329Z,24.24
2022-08-07T04:35:39.915Z,24.49
2022-08-07T04:38:07.281Z,24.34
2022-08-07T04:40:33.602Z,24.44
2022-08-07T04:43:02.278Z,24.46
2022-08-07T04:45:57.542Z,24.53
2022-08-07T04:48:15.635Z,24.48
2022-08-07T04:50:42.725Z,24.48
2022-08-07T04:53:27.631Z,24.28
2022-08-07T04:58:09.708Z,24.44
2022-08-07T05:01:31.736Z,24.74
2022-08-07T05:04:06.483Z,25.14
2022-08-07T05:06:43.281Z,25.48
2022-08-07T05:09:09.899Z,25.62
2022-08-07T05:11:58.687Z,25.60
2022-08-07T05:14:52.438Z,25.40
2022-08-07T05:17:11.660Z,25.33
2022-08-07T05:19:44.753Z,25.24
2022-08-07T05:22:11.413Z,25.19
2022-08-07T05:24:40.498Z,25.07
2022-08-07T05:27:06.726Z,25.08
2022-08-07T05:29:51.168Z,25.13
2022-08-07T05:32:18.205Z,25.17
2022-08-07T05:34:45.824Z,25.27
2022-08-07T05:37:12.574Z,25.31
2022-08-07T05:40:14.007Z,25.36
2022-08-07T05:42:33.856Z,25.42
2022-08-07T05:45:14.216Z,25.44
2022-08-07T05:48:01.952Z,25.39
2022-08-07T05:50:26.979Z,25.39
2022-08-07T05:52:53.797Z,25.39
2022-08-07T05:55:21.144Z,25.56
2022-08-07T05:57:48.859Z,25.51
2022-08-07T06:00:17.730Z,25.26
2022-08-07T06:02:43.923Z,25.19
2022-08-07T06:05:11.038Z,25.33
2022-08-07T06:08:14.594Z,25.32
2022-08-07T06:10:27.864Z,25.48
2022-08-07T06:12:53.861Z,25.64
2022-08-07T06:15:20.496Z,25.78
2022-08-07T06:17:52.572Z,25.82
2022-08-07T06:20:25.733Z,25.72
2022-08-07T06:23:25.227Z,25.74
2022-08-07T06:25:57.043Z,25.89
2022-08-07T06:28:28.109Z,26.01
2022-08-07T06:30:54.489Z,26.06
2022-08-07T06:33:20.564Z,26.08
2022-08-07T06:36:06.704Z,26.05
2022-08-07T06:38:35.095Z,26.10
2022-08-07T06:41:01.265Z,26.56
2022-08-07T06:43:27.766Z,26.78
2022-08-07T06:46:05.670Z,27.00
2022-08-07T06:48:37.595Z,26.95
2022-08-07T06:51:09.575Z,26.99
2022-08-07T06:54:11.795Z,27.05
2022-08-07T06:56:21.519Z,27.40
2022-08-07T07:00:12.930Z,27.48
2022-08-07T07:01:44.069Z,27.35
2022-08-07T07:04:28.342Z,27.56
2022-08-07T07:07:01.283Z,27.58
2022-08-07T07:09:31.206Z,27.98
2022-08-07T07:12:07.484Z,28.37
2022-08-07T07:14:39.212Z,28.42
2022-08-07T07:17:06.510Z,28.62
2022-08-07T07:19:57.156Z,28.58
2022-08-07T07:22:35.837Z,28.39
2022-08-07T07:25:14.054Z,28.44
2022-08-07T07:27:56.290Z,28.63
2022-08-07T07:30:37.856Z,28.66
2022-08-07T07:33:05.321Z,28.68
2022-08-07T07:35:33.418Z,28.71
2022-08-07T07:37:59.631Z,28.46
2022-08-07T07:40:28.943Z,28.51
2022-08-07T07:42:55.646Z,28.89
2022-08-07T07:46:35.720Z,29.17
2022-08-07T07:48:07.707Z,29.06
2022-08-07T07:50:38.837Z,29.06
2022-08-07T07:53:06.048Z,29.24
2022-08-07T07:55:57.474Z,29.53
2022-08-07T07:58:23.992Z,29.04
2022-08-07T08:01:02.114Z,29.02
2022-08-07T08:04:09.456Z,29.02
2022-08-07T08:06:36.403Z,29.42
2022-08-07T08:09:02.610Z,29.26
2022-08-07T08:11:59.320Z,29.23
2022-08-07T08:14:14.543Z,29.53
2022-08-07T08:16:40.494Z,29.67
2022-08-07T08:19:09.659Z,29.27
2022-08-07T08:22:00.500Z,29.07
2022-08-07T08:24:36.518Z,29.23
2022-08-07T08:27:11.742Z,28.59
2022-08-07T08:29:54.315Z,28.50
2022-08-07T08:32:25.372Z,29.39
2022-08-07T08:34:51.539Z,29.88
2022-08-07T08:38:01.766Z,30.15
2022-08-07T08:40:03.562Z,29.85
2022-08-07T08:42:29.538Z,28.96
2022-08-07T08:44:56.083Z,28.46
2022-08-07T08:47:22.107Z,29.20
2022-08-07T08:50:04.855Z,29.16
2022-08-07T08:52:32.289Z,29.09
2022-08-07T08:55:07.554Z,29.57
2022-08-07T08:57:34.294Z,30.17
2022-08-07T09:00:00.318Z,30.68
2022-08-07T09:02:34.832Z,30.94
2022-08-07T09:05:03.464Z,31.01
2022-08-07T09:07:34.031Z,30.43
2022-08-07T09:10:12.046Z,30.84
2022-08-07T09:12:38.179Z,31.10
2022-08-07T09:16:20.205Z,30.94
2022-08-07T09:17:59.716Z,30.27
2022-08-07T09:20:35.360Z,30.93
2022-08-07T09:24:31.901Z,31.54
2022-08-07T09:25:53.506Z,31.92
2022-08-07T09:30:06.431Z,31.99
2022-08-07T09:31:06.642Z,31.89
2022-08-07T09:33:52.835Z,31.94
2022-08-07T09:36:20.480Z,32.35
2022-08-07T09:38:49.915Z,32.37
2022-08-07T09:41:19.643Z,32.12
2022-08-07T09:44:05.806Z,32.08
2022-08-07T09:47:49.520Z,31.02
2022-08-07T09:50:01.257Z,30.88
2022-08-07T09:52:15.459Z,30.95
2022-08-07T09:54:50.791Z,30.52
2022-08-07T09:57:16.727Z,31.06
2022-08-07T09:59:46.323Z,31.62
2022-08-07T10:02:29.646Z,32.06
2022-08-07T10:04:57.656Z,32.00
2022-08-07T10:07:31.815Z,31.96
2022-08-07T10:10:06.013Z,31.67
2022-08-07T10:12:39.656Z,32.31
2022-08-07T10:15:06.343Z,32.72
2022-08-07T10:18:01.277Z,32.63
2022-08-07T10:20:20.670Z,32.36
2022-08-07T10:22:50.855Z,32.51
2022-08-07T10:25:20.781Z,32.81
2022-08-07T10:27:51.453Z,32.62
2022-08-07T10:30:17.606Z,32.91
2022-08-07T10:32:53.091Z,33.01
2022-08-07T10:35:20.432Z,32.38
2022-08-07T10:37:48.696Z,32.12
2022-08-07T10:40:32.646Z,31.92
2022-08-07T10:42:58.637Z,32.42
2022-08-07T10:45:44.731Z,32.71
2022-08-07T10:48:11.073Z,32.64
2022-08-07T10:50:40.397Z,32.52
2022-08-07T10:53:08.895Z,32.42
2022-08-07T10:55:37.929Z,32.51
2022-08-07T10:58:04.993Z,32.29
2022-08-07T11:00:39.171Z,32.77
2022-08-07T11:03:11.352Z,32.92
2022-08-07T11:05:50.410Z,33.36
2022-08-07T11:08:17.250Z,33.13
2022-08-07T11:10:43.224Z,33.66
2022-08-07T11:13:42.305Z,33.29
2022-08-07T11:15:59.621Z,32.49
2022-08-07T11:18:25.575Z,32.99
2022-08-07T11:20:53.518Z,33.73
2022-08-07T11:23:20.784Z,33.56
2022-08-07T11:25:56.895Z,34.07
2022-08-07T11:28:32.525Z,34.53
2022-08-07T11:30:58.464Z,34.20
2022-08-07T11:33:53.456Z,33.49
2022-08-07T11:36:10.630Z,33.05
2022-08-07T11:38:36.562Z,32.98
2022-08-07T11:41:05.963Z,32.97
2022-08-07T11:43:54.289Z,33.36
2022-08-07T11:46:19.765Z,33.48
2022-08-07T11:49:17.503Z,33.13
2022-08-07T11:51:44.871Z,32.32
2022-08-07T11:54:12.736Z,32.77
2022-08-07T11:56:38.694Z,33.40
2022-08-07T12:00:07.577Z,33.39
2022-08-07T12:02:00.605Z,33.78
2022-08-07T12:04:26.992Z,33.68
2022-08-07T12:07:01.013Z,34.40
2022-08-07T12:09:34.874Z,33.83
2022-08-07T12:12:09.133Z,33.95
2022-08-07T12:14:37.252Z,34.06
2022-08-07T12:17:04.414Z,34.32
2022-08-07T12:19:35.511Z,34.24
2022-08-07T12:22:37.637Z,34.07
2022-08-07T12:25:07.861Z,33.33
2022-08-07T12:28:08.445Z,32.83
2022-08-07T12:30:19.980Z,32.01
2022-08-07T12:32:49.546Z,32.03
2022-08-07T12:35:16.846Z,31.80
2022-08-07T12:38:10.056Z,32.08
2022-08-07T12:40:48.524Z,31.39
2022-08-07T12:44:01.332Z,31.77
2022-08-07T12:46:01.897Z,32.08
2022-08-07T12:48:52.032Z,32.25
2022-08-07T12:51:17.586Z,31.72
2022-08-07T12:54:23.897Z,32.18
2022-08-07T12:56:29.894Z,32.15
2022-08-07T12:58:57.274Z,32.13
2022-08-07T13:01:32.018Z,32.22
2022-08-07T13:04:01.918Z,32.55
2022-08-07T13:06:29.326Z,32.48
2022-08-07T13:08:55.269Z,32.12
2022-08-07T13:11:21.261Z,31.30
2022-08-07T13:13:50.077Z,31.66
2022-08-07T13:16:16.362Z,31.76
2022-08-07T13:18:44.636Z,32.29
2022-08-07T13:21:23.563Z,32.75
2022-08-07T13:24:04.512Z,32.82
2022-08-07T13:26:30.761Z,32.55
2022-08-07T13:28:58.471Z,32.69
2022-08-07T13:31:24.506Z,32.98
2022-08-07T13:34:32.787Z,32.84
2022-08-07T13:36:44.304Z,32.87
2022-08-07T13:39:12.684Z,32.90
2022-08-07T13:41:41.585Z,32.83
2022-08-07T13:44:10.737Z,33.02
2022-08-07T13:46:48.861Z,32.96
2022-08-07T13:50:35.670Z,32.43
2022-08-07T13:52:23.034Z,32.41
2022-08-07T13:54:49.048Z,32.64
2022-08-07T13:57:23.849Z,32.71
2022-08-07T13:59:50.310Z,32.78
2022-08-07T14:02:21.024Z,32.83
2022-08-07T14:04:59.275Z,32.54
2022-08-07T14:07:25.283Z,32.50
2022-08-07T14:10:02.693Z,32.44
2022-08-07T14:12:41.956Z,32.39
2022-08-07T14:15:15.040Z,32.13
2022-08-07T14:18:15.836Z,32.19
2022-08-07T14:20:40.177Z,32.18
2022-08-07T14:23:10.471Z,32.40
2022-08-07T14:25:39.660Z,32.25
2022-08-07T14:28:14.060Z,32.46
2022-08-07T14:30:40.688Z,32.55
2022-08-07T14:33:06.781Z,32.09
2022-08-07T14:35:44.867Z,32.17
2022-08-07T14:38:30.765Z,32.30
2022-08-07T14:40:57.544Z,32.40
2022-08-07T14:43:57.180Z,32.02
2022-08-07T14:46:10.019Z,31.92
2022-08-07T14:48:35.964Z,31.83
2022-08-07T14:51:02.383Z,32.10
2022-08-07T14:54:05.513Z,32.45
2022-08-07T14:56:29.667Z,32.55
2022-08-07T14:58:56.497Z,32.80
2022-08-07T15:01:23.328Z,32.96
2022-08-07T15:06:35.314Z,32.81
2022-08-07T15:09:03.043Z,32.84
2022-08-07T15:11:53.968Z,32.91
2022-08-07T15:17:13.314Z,33.25
2022-08-07T15:22:31.356Z,33.01
2022-08-07T15:25:19.456Z,32.97
2022-08-07T15:28:30.755Z,33.07
2022-08-07T15:30:31.653Z,32.96
2022-08-07T15:36:01.246Z,32.92
2022-08-07T15:38:51.013Z,32.87
2022-08-07T15:41:23.677Z,32.69
2022-08-07T15:44:02.086Z,32.71
2022-08-07T15:49:15.385Z,32.77
2022-08-07T15:54:23.908Z,32.59
2022-08-07T15:56:52.341Z,32.50
2022-08-07T15:59:18.286Z,31.97
2022-08-07T16:02:01.797Z,32.01
2022-08-07T16:04:28.724Z,32.07
2022-08-07T16:07:00.407Z,31.93
2022-08-07T16:09:40.949Z,31.93
2022-08-07T16:12:12.284Z,31.94
2022-08-07T16:14:38.380Z,31.85
2022-08-07T16:17:15.243Z,31.83
2022-08-07T16:19:58.760Z,31.85
2022-08-07T16:22:31.813Z,31.65
2022-08-07T16:25:02.196Z,31.70
2022-08-07T16:27:39.904Z,31.62
2022-08-07T16:30:29.681Z,31.52
2022-08-07T16:32:54.493Z,31.49
2022-08-07T16:35:56.827Z,31.37
2022-08-07T16:38:11.262Z,31.25
2022-08-07T16:40:37.565Z,31.15
2022-08-07T16:43:23.452Z,31.21
2022-08-07T16:47:04.659Z,31.14
2022-08-07T16:50:20.353Z,31.17
2022-08-07T16:52:01.537Z,30.98
2022-08-07T16:54:32.686Z,30.88
2022-08-07T16:56:59.292Z,30.94
2022-08-07T16:59:25.606Z,30.60
2022-08-07T17:02:11.582Z,30.78
2022-08-07T17:04:51.086Z,30.11
2022-08-07T17:07:28.414Z,29.75
2022-08-07T17:10:32.991Z,29.72
2022-08-07T17:12:55.419Z,29.71
2022-08-07T17:15:44.360Z,29.90
2022-08-07T17:18:14.396Z,29.79
2022-08-07T17:20:40.779Z,29.29
2022-08-07T17:23:08.721Z,28.85
2022-08-07T17:25:51.327Z,29.12
2022-08-07T17:28:19.590Z,28.78
2022-08-07T17:30:58.596Z,28.84
2022-08-07T17:34:09.217Z,29.09
2022-08-07T17:36:13.420Z,29.49
2022-08-07T17:38:46.154Z,29.61
2022-08-07T17:42:02.022Z,29.65
2022-08-07T17:44:09.321Z,29.46
2022-08-07T17:46:37.910Z,29.61
2022-08-07T17:49:08.887Z,29.76
2022-08-07T17:51:59.892Z,29.67
2022-08-07T17:54:39.789Z,29.64
2022-08-07T17:57:18.670Z,29.66
2022-08-07T17:59:45.391Z,29.73
2022-08-07T18:02:16.403Z,29.60
2022-08-07T18:04:42.361Z,29.30
2022-08-07T18:07:20.747Z,29.15
2022-08-07T18:10:05.970Z,29.25
2022-08-07T18:12:34.089Z,29.24
2022-08-07T18:15:00.245Z,29.34
2022-08-07T18:18:46.177Z,29.27
2022-08-07T18:21:08.595Z,29.16
2022-08-07T18:22:58.393Z,29.14
2022-08-07T18:25:40.155Z,29.16
2022-08-07T18:28:07.367Z,29.08
2022-08-07T18:30:36.801Z,29.09
2022-08-07T18:33:10.927Z,29.03
2022-08-07T18:35:51.832Z,29.03
2022-08-07T18:38:58.330Z,29.02
2022-08-07T18:41:09.977Z,29.06
2022-08-07T18:43:48.939Z,29.09
2022-08-07T18:46:25.669Z,29.13
2022-08-07T18:50:30.174Z,28.94
2022-08-07T18:52:51.787Z,28.83
2022-08-07T18:54:27.873Z,28.91
2022-08-07T18:57:29.205Z,28.89
2022-08-07T18:59:47.704Z,28.78
2022-08-07T19:02:34.307Z,28.82
2022-08-07T19:05:14.862Z,28.85
2022-08-07T19:07:51.857Z,28.78
2022-08-07T19:10:23.577Z,28.73
2022-08-07T19:12:58.208Z,28.63
2022-08-07T19:16:04.666Z,28.39
2022-08-07T19:18:35.006Z,28.29
2022-08-07T19:21:09.613Z,28.37
2022-08-07T19:23:58.328Z,28.39
2022-08-07T19:26:29.291Z,28.24
2022-08-07T19:30:54.294Z,28.26
2022-08-07T19:32:10.346Z,28.21
2022-08-07T19:34:34.385Z,28.16
2022-08-07T19:37:09.585Z,28.18
2022-08-07T19:39:56.731Z,28.11
2022-08-07T19:42:27.038Z,28.01
2022-08-07T19:44:56.636Z,27.93
2022-08-07T19:47:27.237Z,27.99
2022-08-07T19:49:58.216Z,27.93
2022-08-07T19:52:28.749Z,27.81
2022-08-07T19:54:56.448Z,27.79
2022-08-07T19:58:00.654Z,27.78
2022-08-07T20:00:10.394Z,27.74
2022-08-07T20:02:39.170Z,27.76
2022-08-07T20:05:07.826Z,27.68
2022-08-07T20:07:46.203Z,27.72
2022-08-07T20:10:38.024Z,27.57
2022-08-07T20:12:58.914Z,27.52
2022-08-07T20:15:24.866Z,27.51
2022-08-07T20:18:03.591Z,27.56
2022-08-07T20:20:30.449Z,27.53
2022-08-07T20:22:56.414Z,27.47
2022-08-07T20:25:22.428Z,27.51
2022-08-07T20:27:57.849Z,27.56
2022-08-07T20:30:24.906Z,27.51
2022-08-07T20:32:51.426Z,27.50
2022-08-07T20:35:21.935Z,27.46
2022-08-07T20:37:58.318Z,27.48
2022-08-07T20:40:31.409Z,27.41
2022-08-07T20:43:00.127Z,27.28
2022-08-07T20:45:32.933Z,27.33
2022-08-07T20:48:12.868Z,27.33
2022-08-07T20:50:55.179Z,27.38
2022-08-07T20:53:25.878Z,27.41
2022-08-07T20:56:07.091Z,27.20
2022-08-07T20:58:33.739Z,27.08
2022-08-07T21:00:59.682Z,27.00
2022-08-07T21:03:26.183Z,26.93
2022-08-07T21:05:56.788Z,26.85
2022-08-07T21:08:32.427Z,26.80
2022-08-07T21:11:04.386Z,26.74
2022-08-07T21:13:57.858Z,26.96
2022-08-07T21:16:16.595Z,26.92
2022-08-07T21:18:45.996Z,26.86
2022-08-07T21:21:12.342Z,26.99
2022-08-07T21:23:49.419Z,27.10
2022-08-07T21:26:16.672Z,27.10
2022-08-07T21:28:48.654Z,26.99
2022-08-07T21:31:16.756Z,27.09
2022-08-07T21:33:57.572Z,26.92
2022-08-07T21:36:30.849Z,26.99
2022-08-07T21:38:58.490Z,26.86
2022-08-07T21:41:24.618Z,26.97
2022-08-07T21:43:55.875Z,26.77
2022-08-07T21:46:24.995Z,26.45
2022-08-07T21:48:57.665Z,26.51
2022-08-07T21:51:25.419Z,26.68
2022-08-07T21:53:52.696Z,26.76
2022-08-07T21:56:36.716Z,26.58
2022-08-07T21:59:05.536Z,26.82
2022-08-07T22:02:07.418Z,26.95
2022-08-07T22:04:20.323Z,26.87
2022-08-07T22:06:46.470Z,26.93
2022-08-07T22:09:15.896Z,26.98
2022-08-07T22:12:04.971Z,26.81
2022-08-07T22:14:36.329Z,26.78
2022-08-07T22:17:02.634Z,26.79
2022-08-07T22:19:30.481Z,26.82
2022-08-07T22:22:04.927Z,26.95
2022-08-07T22:24:42.515Z,26.89
2022-08-07T22:27:08.461Z,26.89
2022-08-07T22:29:47.334Z,26.95
2022-08-07T22:32:20.278Z,26.94
2022-08-07T22:34:49.620Z,26.98
2022-08-07T22:37:19.268Z,26.89
2022-08-07T22:39:51.951Z,26.82
2022-08-07T22:42:20.171Z,26.76
2022-08-07T22:44:59.064Z,26.83
2022-08-07T22:47:25.679Z,26.86
2022-08-07T22:49:54.968Z,26.80
2022-08-07T22:52:37.120Z,26.90
2022-08-07T22:55:14.896Z,26.84
2022-08-07T22:57:43.739Z,26.87
2022-08-07T23:00:09.882Z,26.91
2022-08-07T23:02:37.435Z,26.90
2022-08-07T23:06:09.991Z,26.96
2022-08-07T23:07:49.675Z,26.93
2022-08-07T23:10:38.203Z,26.86
2022-08-07T23:13:01.873Z,26.78
2022-08-07T23:16:06.006Z,26.63
2022-08-07T23:18:13.803Z,26.66
2022-08-07T23:20:51.500Z,26.67
2022-08-07T23:24:06.670Z,26.67
2022-08-07T23:26:05.705Z,26.74
2022-08-07T23:28:31.741Z,26.69
2022-08-07T23:31:06.892Z,26.46
2022-08-07T23:34:35.551Z,26.34
2022-08-07T23:36:29.705Z,26.43
2022-08-07T23:38:55.965Z,26.42
2022-08-07T23:41:22.193Z,26.35
2022-08-07T23:43:51.265Z,26.37
2022-08-07T23:46:20.056Z,26.43
2022-08-07T23:48:49.669Z,26.42
2022-08-07T23:52:59.666Z,26.57
2022-08-07T23:54:01.577Z,26.60
2022-08-07T23:56:27.531Z,26.62
2022-08-07T23:58:57.199Z,26.65
